Time;durP1;ratioP1;P1;durP2;ratioP2;P2;SDS_P1;SDS_P2;PMS_P1;PMS_P2;Temp;Humidity;BMP_temperature;BMP_pressure;BME280_temperature;BME280_humidity;BME280_pressure;Samples;Min_cycle;Max_cycle;Signal;HPM_P1;HPM_P2
2024/04/05 00:00:39;;;;;;;1.10;1.10;;;;;;;4.68;100.00;99490.38;5013687;28;20436;-72
2024/04/05 00:03:05;;;;;;;1.20;1.00;;;;;;;4.52;100.00;99496.03;4997456;28;20057;-72
2024/04/05 00:05:34;;;;;;;1.10;1.00;;;;;;;4.59;100.00;99491.97;4983065;28;20044;-72
2024/04/05 00:08:01;;;;;;;1.27;0.90;;;;;;;4.58;100.00;99495.56;5004663;28;20056;-73
2024/04/05 00:10:31;;;;;;;1.03;1.00;;;;;;;4.67;100.00;99497.47;5004912;28;20045;-72
2024/04/05 00:13:01;;;;;;;1.10;1.00;;;;;;;4.68;100.00;99498.28;4983618;28;20041;-71
2024/04/05 00:15:27;;;;;;;1.35;1.20;;;;;;;4.58;100.00;99494.72;5000184;28;20095;-71
2024/04/05 00:17:55;;;;;;;1.13;1.03;;;;;;;4.56;100.00;99496.66;4983706;28;20049;-71
2024/04/05 00:20:21;;;;;;;1.93;1.30;;;;;;;4.60;100.00;99498.06;4967273;28;20390;-71
2024/04/05 00:22:51;;;;;;;0.95;0.95;;;;;;;4.58;100.00;99500.00;4983806;28;20068;-71
2024/04/05 00:25:21;;;;;;;1.67;1.20;;;;;;;4.62;100.00;99502.25;4965343;28;20136;-72
2024/04/05 00:27:46;;;;;;;1.30;1.20;;;;;;;4.51;100.00;99499.66;4981332;28;20061;-72
2024/04/05 00:30:12;;;;;;;1.20;1.10;;;;;;;4.55;100.00;99494.97;4981176;28;20498;-71
2024/04/05 00:33:03;;;;;;;1.20;1.10;;;;;;;4.64;100.00;99505.56;4984603;28;20538;-73
2024/04/05 00:35:31;;;;;;;1.27;1.17;;;;;;;4.59;100.00;99513.03;4965091;28;20132;-71
2024/04/05 00:37:58;;;;;;;1.20;1.10;;;;;;;4.51;100.00;99517.22;4997392;28;20076;-71
2024/04/05 00:40:26;;;;;;;1.17;1.00;;;;;;;4.52;100.00;99519.72;4980627;28;20147;-71
2024/04/05 00:42:52;;;;;;;1.37;1.27;;;;;;;4.53;100.00;99521.41;4950127;28;20053;-71
2024/04/05 00:45:21;;;;;;;2.03;1.10;;;;;;;4.53;100.00;99518.78;4986533;28;20056;-71
2024/04/05 00:47:47;;;;;;;1.00;1.00;;;;;;;4.50;100.00;99521.66;5018735;28;20321;-71
2024/04/05 00:50:16;;;;;;;0.90;0.90;;;;;;;4.55;100.00;99526.53;4986691;28;20048;-72
2024/04/05 00:52:45;;;;;;;1.23;1.13;;;;;;;4.56;100.00;99523.78;5002746;28;20052;-71
2024/04/05 00:55:39;;;;;;;1.13;1.03;;;;;;;4.64;100.00;99531.06;5001078;28;20045;-71
2024/04/05 00:58:06;;;;;;;0.90;0.90;;;;;;;4.49;100.00;99527.03;5018820;28;20079;-72
2024/04/05 01:00:32;;;;;;;2.33;1.10;;;;;;;4.39;100.00;99541.84;5002823;28;20419;-71
2024/04/05 01:02:58;;;;;;;1.57;1.20;;;;;;;4.39;100.00;99536.59;4986816;28;20044;-71
2024/04/05 01:05:30;;;;;;;1.07;1.03;;;;;;;4.44;100.00;99534.44;5019286;28;20450;-71
2024/04/05 01:07:56;;;;;;;1.23;1.00;;;;;;;4.32;100.00;99535.44;5002936;28;20055;-71
2024/04/05 01:10:32;;;;;;;1.03;0.93;;;;;;;4.34;100.00;99538.75;5002124;28;20172;-73
2024/04/05 01:13:02;;;;;;;1.13;0.90;;;;;;;4.24;100.00;99536.03;4985726;28;20061;-72
2024/04/05 01:15:32;;;;;;;1.50;1.08;;;;;;;4.40;100.00;99533.84;5002299;28;20044;-71
2024/04/05 01:18:02;;;;;;;1.37;1.00;;;;;;;4.48;100.00;99535.84;5010451;28;20471;-71
2024/04/05 01:20:34;;;;;;;1.30;1.10;;;;;;;4.51;100.00;99538.25;5033653;28;20041;-72
2024/04/05 01:23:08;;;;;;;1.57;1.10;;;;;;;4.54;100.00;99540.63;5034627;28;20311;-71
2024/04/05 01:25:35;;;;;;;1.02;0.95;;;;;;;4.55;100.00;99535.25;5034520;28;20125;-73
2024/04/05 01:28:12;;;;;;;1.73;1.23;;;;;;;4.57;100.00;99538.59;5001052;28;20463;-72
2024/04/05 01:30:39;;;;;;;1.10;1.10;;;;;;;4.50;100.00;99552.34;5017403;28;20044;-71
2024/04/05 01:33:07;;;;;;;1.90;0.90;;;;;;;4.41;100.00;99550.47;5017226;28;20083;-72
2024/04/05 01:35:34;;;;;;;1.17;1.00;;;;;;;4.50;100.00;99552.34;5003170;28;20479;-71
2024/04/05 01:38:00;;;;;;;1.23;1.10;;;;;;;4.40;100.00;99551.41;5019947;28;20053;-71
2024/04/05 01:40:26;;;;;;;1.20;1.20;;;;;;;4.44;100.00;99553.69;5020079;28;20055;-71
2024/04/05 01:42:53;;;;;;;1.37;1.10;;;;;;;4.52;100.00;99558.34;5019937;28;20045;-70
2024/04/05 01:45:19;;;;;;;1.07;0.93;;;;;;;4.43;100.00;99548.53;5036496;28;20075;-71
2024/04/05 01:47:49;;;;;;;2.03;1.00;;;;;;;4.45;100.00;99559.78;5003025;28;20132;-71
2024/04/05 01:50:16;;;;;;;1.13;1.03;;;;;;;4.33;100.00;99545.81;5019025;28;20061;-71
2024/04/05 01:52:48;;;;;;;1.20;0.90;;;;;;;4.12;100.00;99563.25;5014161;28;20053;-71
2024/04/05 01:55:15;;;;;;;1.10;1.00;;;;;;;4.17;100.00;99562.88;4965007;28;20470;-71
2024/04/05 01:57:41;;;;;;;1.43;1.10;;;;;;;4.04;100.00;99576.16;4965910;28;20510;-71
2024/04/05 02:00:10;;;;;;;0.90;0.90;;;;;;;4.06;100.00;99573.44;4967260;28;20076;-70
2024/04/05 02:02:47;;;;;;;1.15;1.05;;;;;;;4.01;100.00;99565.91;4982727;28;20057;-71
2024/04/05 02:05:15;;;;;;;1.20;1.10;;;;;;;3.88;100.00;99569.56;5010651;28;20054;-71
2024/04/05 02:07:45;;;;;;;1.10;1.10;;;;;;;3.79;100.00;99571.13;4958490;28;20563;-71
2024/04/05 02:10:15;;;;;;;1.10;0.90;;;;;;;3.60;100.00;99575.25;4958738;28;20141;-72
2024/04/05 02:12:42;;;;;;;1.00;0.90;;;;;;;3.60;100.00;99578.72;4958732;28;20057;-71
2024/04/05 02:15:09;;;;;;;1.20;1.10;;;;;;;3.71;100.00;99581.38;4958470;28;20296;-72
2024/04/05 02:17:40;;;;;;;1.10;1.00;;;;;;;3.72;100.00;99579.59;4958111;28;20038;-71
2024/04/05 02:20:07;;;;;;;1.23;1.00;;;;;;;3.65;100.00;99599.38;4942196;28;20046;-72
2024/04/05 02:22:43;;;;;;;;;;;;;;;3.85;100.00;99591.66;4957444;28;20056;-71
2024/04/05 02:25:11;;;;;;;1.07;1.00;;;;;;;3.76;100.00;99599.41;4955964;28;19932;-72
2024/04/05 02:27:37;;;;;;;1.20;1.10;;;;;;;3.61;100.00;99597.94;4972063;28;20112;-73
2024/04/05 02:30:07;;;;;;;1.20;1.10;;;;;;;3.62;100.00;99605.69;4956695;28;20054;-72
2024/04/05 02:32:33;;;;;;;1.87;1.00;;;;;;;3.59;100.00;99608.56;4956381;28;20054;-71
2024/04/05 02:35:03;;;;;;;2.07;1.00;;;;;;;3.58;100.00;99608.66;4958430;28;20624;-71
2024/04/05 02:37:30;;;;;;;0.90;0.90;;;;;;;3.45;100.00;99601.72;4939153;28;20073;-71
2024/04/05 02:39:58;;;;;;;0.80;0.80;;;;;;;3.61;100.00;99609.28;4939169;28;20069;-71
2024/04/05 02:42:25;;;;;;;0.90;0.90;;;;;;;3.59;100.00;99607.72;4966905;28;20161;-71
2024/04/05 02:44:52;;;;;;;1.20;1.00;;;;;;;3.61;100.00;99609.28;4961826;28;20115;-71
2024/04/05 02:47:17;;;;;;;1.40;0.90;;;;;;;3.69;100.00;99619.22;4961769;28;20441;-71
2024/04/05 02:49:43;;;;;;;0.90;0.90;;;;;;;3.66;100.00;99609.75;4961676;28;20140;-72
2024/04/05 02:52:12;;;;;;;1.00;1.00;;;;;;;3.75;100.00;99624.00;4961723;28;20076;-72
2024/04/05 02:54:43;;;;;;;1.00;0.73;;;;;;;3.78;100.00;99619.38;4962143;28;20428;-72
2024/04/05 02:57:08;;;;;;;;;;;;;;;3.88;100.00;99620.31;4962428;28;20073;-72
2024/04/05 02:59:37;;;;;;;0.97;0.80;;;;;;;3.82;100.00;99619.94;4977778;28;19917;-71
2024/04/05 03:02:03;;;;;;;1.20;1.10;;;;;;;3.71;100.00;99617.28;4964568;28;20056;-71
2024/04/05 03:04:29;;;;;;;1.83;0.90;;;;;;;3.66;100.00;99625.50;4996943;28;20464;-71
2024/04/05 03:06:55;;;;;;;1.33;1.00;;;;;;;3.62;99.11;99633.72;4996760;28;20123;-71
2024/04/05 03:09:21;;;;;;;1.13;1.00;;;;;;;3.59;99.83;99644.47;5029051;28;20090;-72
2024/04/05 03:11:48;;;;;;;2.00;1.17;;;;;;;3.59;100.00;99639.22;5001214;28;20391;-72
2024/04/05 03:14:14;;;;;;;1.43;1.10;;;;;;;3.51;100.00;99642.41;5001333;28;20044;-72
2024/04/05 03:16:46;;;;;;;0.97;0.97;;;;;;;3.60;100.00;99646.97;5002258;28;20041;-72
2024/04/05 03:19:17;;;;;;;1.10;1.00;;;;;;;3.53;100.00;99647.56;5021041;28;20076;-72
2024/04/05 03:21:44;;;;;;;1.00;0.90;;;;;;;3.53;100.00;99648.41;5004002;28;20052;-72
2024/04/05 03:24:10;;;;;;;1.90;0.80;;;;;;;3.38;100.00;99646.91;5020252;28;20514;-72
2024/04/05 03:26:39;;;;;;;1.97;0.90;;;;;;;3.41;100.00;99651.94;5003608;28;20079;-72
2024/04/05 03:29:09;;;;;;;2.00;0.90;;;;;;;3.36;99.75;99665.41;5020025;28;20102;-72
2024/04/05 03:31:39;;;;;;;1.30;1.00;;;;;;;3.28;99.20;99662.50;4966973;28;20065;-72
2024/04/05 03:34:10;;;;;;;1.20;1.17;;;;;;;3.38;100.00;99660.84;4998856;28;20084;-71
2024/04/05 03:36:37;;;;;;;1.00;0.90;;;;;;;3.30;100.00;99665.84;4981368;28;20054;-71
2024/04/05 03:39:03;;;;;;;1.17;1.00;;;;;;;3.34;100.00;99672.53;4964457;28;20053;-72
2024/04/05 03:41:29;;;;;;;1.23;1.00;;;;;;;3.37;100.00;99668.84;4980042;28;20381;-71
2024/04/05 03:43:59;;;;;;;1.73;1.27;;;;;;;3.44;98.59;99676.16;4980847;28;20132;-71
2024/04/05 03:46:28;;;;;;;2.47;1.33;;;;;;;3.31;98.45;99671.91;4980377;28;20103;-72
2024/04/05 03:48:54;;;;;;;2.13;1.43;;;;;;;3.31;98.90;99672.75;5012666;28;20404;-72
2024/04/05 03:51:20;;;;;;;1.07;1.07;;;;;;;3.25;97.88;99678.47;4996210;28;20053;-72
2024/04/05 03:53:50;;;;;;;1.75;1.30;;;;;;;3.23;98.30;99677.72;4996378;28;20038;-72
2024/04/05 03:56:18;;;;;;;1.77;0.90;;;;;;;3.28;99.88;99693.97;4974040;28;20161;-72
2024/04/05 03:58:47;;;;;;;3.13;1.00;;;;;;;3.36;99.28;99680.31;4938521;28;20050;-72
2024/04/05 04:01:13;;;;;;;2.00;1.20;;;;;;;3.23;97.13;99695.25;4922785;28;20055;-74
2024/04/05 04:03:39;;;;;;;1.33;1.03;;;;;;;3.24;98.56;99684.63;4941011;28;20076;-72
2024/04/05 04:06:08;;;;;;;1.83;1.07;;;;;;;3.32;97.20;99690.19;4957616;28;20116;-72
2024/04/05 04:08:34;;;;;;;2.50;1.13;;;;;;;3.22;98.75;99694.44;4941454;28;20054;-72
2024/04/05 04:11:04;;;;;;;0.93;0.93;;;;;;;3.33;100.00;99691.88;4973783;28;20046;-71
2024/04/05 04:13:30;;;;;;;1.13;1.00;;;;;;;3.31;99.68;99701.63;4957410;28;20054;-71
2024/04/05 04:15:57;;;;;;;1.43;1.10;;;;;;;3.43;99.37;99706.00;4973160;28;20148;-71
2024/04/05 04:18:23;;;;;;;2.67;1.00;;;;;;;3.49;100.00;99705.53;4960010;28;20597;-72
2024/04/05 04:20:49;;;;;;;2.23;1.20;;;;;;;3.62;99.20;99705.47;4944816;28;20137;-71
2024/04/05 04:23:17;;;;;;;4.43;1.53;;;;;;;3.81;98.51;99708.44;4944990;28;20097;-74
2024/04/05 04:25:43;;;;;;;2.13;1.10;;;;;;;3.89;100.00;99713.13;4961745;28;20061;-73
2024/04/05 04:28:08;;;;;;;1.40;0.93;;;;;;;4.04;97.95;99711.97;4978180;28;20480;-73
2024/04/05 04:30:34;;;;;;;2.27;1.10;;;;;;;4.12;94.18;99718.31;4980862;28;20056;-73
2024/04/05 04:33:01;;;;;;;2.20;1.00;;;;;;;4.02;89.59;99721.75;4983114;28;20049;-72
2024/04/05 04:35:28;;;;;;;2.07;1.10;;;;;;;4.06;91.38;99721.41;4979919;28;20058;-74
2024/04/05 04:37:54;;;;;;;0.90;0.90;;;;;;;4.12;88.11;99725.38;4980022;28;20066;-73
2024/04/05 04:40:20;;;;;;;0.97;0.97;;;;;;;4.14;86.89;99720.81;4964602;28;20267;-75
2024/04/05 04:42:46;;;;;;;1.10;0.93;;;;;;;4.18;90.01;99727.53;4966783;28;20045;-74
2024/04/05 04:45:12;;;;;;;0.87;0.87;;;;;;;4.25;87.76;99724.31;4982366;28;20158;-71
2024/04/05 04:47:38;;;;;;;1.50;0.97;;;;;;;4.31;87.45;99730.91;4980176;28;20069;-72
2024/04/05 04:50:06;;;;;;;2.07;1.00;;;;;;;4.37;86.85;99727.78;4957026;28;20113;-71
2024/04/05 04:52:33;;;;;;;0.90;0.90;;;;;;;4.46;86.16;99737.63;4906345;28;20062;-72
2024/04/05 04:55:00;;;;;;;0.90;0.90;;;;;;;4.42;85.98;99730.91;4921753;29;20059;-71
2024/04/05 04:57:26;;;;;;;6.80;1.10;;;;;;;4.45;85.62;99728.06;4938174;29;20043;-72
2024/04/05 04:59:52;;;;;;;1.70;0.90;;;;;;;4.49;84.62;99729.53;4906763;28;20451;-73
2024/04/05 05:02:20;;;;;;;1.10;0.97;;;;;;;4.55;84.64;99736.94;4937772;28;20050;-72
2024/04/05 05:04:47;;;;;;;0.97;0.97;;;;;;;4.60;84.64;99730.34;4939456;28;20046;-73
2024/04/05 05:07:13;;;;;;;0.90;0.90;;;;;;;4.65;84.38;99733.47;4956420;28;20167;-72
2024/04/05 05:09:41;;;;;;;2.23;0.90;;;;;;;4.71;83.79;99737.41;4940202;28;20057;-73
2024/04/05 05:12:07;;;;;;;1.03;1.00;;;;;;;4.79;82.93;99740.28;4960309;28;20062;-72
2024/04/05 05:14:33;;;;;;;1.20;1.10;;;;;;;4.71;81.06;99746.16;4956894;28;20094;-72
2024/04/05 05:16:59;;;;;;;1.37;1.00;;;;;;;4.75;82.09;99747.56;4925267;28;20168;-72
2024/04/05 05:19:25;;;;;;;2.17;1.40;;;;;;;4.71;79.78;99747.94;4958205;28;20129;-72
2024/04/05 05:21:50;;;;;;;3.67;1.00;;;;;;;4.70;80.98;99759.41;4910267;28;20055;-72
2024/04/05 05:24:16;;;;;;;1.47;1.10;;;;;;;4.58;81.06;99752.47;4976736;28;20054;-72
2024/04/05 05:26:42;;;;;;;1.97;1.10;;;;;;;4.54;82.64;99754.50;4966961;28;20674;-73
2024/04/05 05:29:08;;;;;;;1.53;1.23;;;;;;;4.55;83.19;99757.97;4982357;28;20140;-72
2024/04/05 05:31:34;;;;;;;1.13;1.03;;;;;;;4.66;83.58;99765.84;4998564;28;20045;-72
2024/04/05 05:34:00;;;;;;;0.97;0.97;;;;;;;4.75;83.65;99766.00;4998595;28;20053;-72
2024/04/05 05:36:27;;;;;;;1.63;1.10;;;;;;;4.90;83.56;99758.72;4998953;28;20041;-72
2024/04/05 05:38:53;;;;;;;1.60;1.27;;;;;;;5.03;80.79;99759.41;4982363;28;20148;-72
2024/04/05 05:41:20;;;;;;;1.60;1.20;;;;;;;5.02;80.05;99766.50;4998470;28;20056;-72
2024/04/05 05:43:46;;;;;;;1.60;1.10;;;;;;;5.10;79.48;99765.88;4982420;28;20053;-72
2024/04/05 05:46:11;;;;;;;1.30;1.20;;;;;;;5.13;77.63;99776.19;4998615;28;20057;-72
2024/04/05 05:48:37;;;;;;;1.63;1.40;;;;;;;5.10;77.30;99781.69;4982215;28;20107;-72
2024/04/05 05:51:03;;;;;;;1.47;1.20;;;;;;;5.10;77.08;99779.06;4967598;28;20046;-73
2024/04/05 05:53:29;;;;;;;3.10;1.40;;;;;;;4.87;74.20;99780.81;5001499;28;20155;-73
2024/04/05 05:55:55;;;;;;;2.03;1.37;;;;;;;4.85;76.61;99787.16;4985438;28;20147;-72
2024/04/05 05:58:21;;;;;;;1.43;1.10;;;;;;;4.84;75.61;99794.22;5018196;28;20111;-73
2024/04/05 06:00:47;;;;;;;1.33;1.10;;;;;;;4.81;75.04;99806.78;5001986;28;20120;-73
2024/04/05 06:03:13;;;;;;;3.43;1.40;;;;;;;4.87;76.48;99811.59;4997903;28;20104;-73
2024/04/05 06:05:39;;;;;;;2.77;1.13;;;;;;;4.95;76.25;99799.50;4975305;28;20101;-72
2024/04/05 06:08:07;;;;;;;1.33;1.13;;;;;;;5.08;76.48;99815.19;4930577;28;20512;-72
2024/04/05 06:10:34;;;;;;;1.00;1.00;;;;;;;5.14;76.86;99819.97;4942977;28;20054;-72
2024/04/05 06:13:01;;;;;;;4.20;1.30;;;;;;;5.22;74.52;99823.69;4931557;28;20110;-72
2024/04/05 06:15:27;;;;;;;1.90;1.20;;;;;;;5.40;73.23;99815.31;4924103;28;20058;-74
2024/04/05 06:17:54;;;;;;;10.43;1.63;;;;;;;5.51;72.37;99823.16;4936791;28;20055;-74
2024/04/05 06:20:20;;;;;;;2.23;1.20;;;;;;;5.69;71.21;99819.09;4938531;28;20227;-71
2024/04/05 06:22:46;;;;;;;1.90;1.10;;;;;;;5.89;71.38;99821.81;4922587;28;20505;-72
2024/04/05 06:25:12;;;;;;;2.33;1.07;;;;;;;6.00;69.35;99829.69;4921013;28;20058;-71
2024/04/05 06:27:37;;;;;;;4.40;1.40;;;;;;;6.09;66.79;99833.41;4918067;28;20050;-70
2024/04/05 06:30:04;;;;;;;5.90;1.30;;;;;;;6.14;66.54;99837.31;4967719;28;20058;-70
2024/04/05 06:32:33;;;;;;;2.77;1.67;;;;;;;6.08;65.53;99835.19;4950150;28;20038;-71
2024/04/05 06:34:59;;;;;;;1.70;1.60;;;;;;;6.20;64.85;99833.34;4965386;28;20061;-75
2024/04/05 06:37:26;;;;;;;1.50;1.40;;;;;;;6.28;64.62;99834.41;4978063;28;20381;-70
2024/04/05 06:39:53;;;;;;;2.08;1.23;;;;;;;6.39;63.88;99836.16;4977182;28;20455;-71
2024/04/05 06:42:20;;;;;;;1.47;1.37;;;;;;;6.49;63.26;99839.69;4968481;28;20142;-71
2024/04/05 06:44:53;;;;;;;1.35;1.13;;;;;;;6.77;62.66;99839.06;4992138;28;20592;-70
2024/04/05 06:47:19;;;;;;;1.30;1.20;;;;;;;6.72;61.67;99843.88;5049393;28;20179;-69
2024/04/05 06:49:47;;;;;;;2.25;1.30;;;;;;;6.79;61.09;99845.91;4991628;28;20044;-72
2024/04/05 06:52:13;;;;;;;1.30;1.20;;;;;;;6.78;59.75;99846.84;5029755;28;20083;-72
2024/04/05 06:54:43;;;;;;;1.25;1.20;;;;;;;6.81;59.40;99836.03;5016117;28;20164;-73
2024/04/05 06:57:10;;;;;;;3.00;1.65;;;;;;;6.74;60.04;99850.72;4994283;28;20048;-72
2024/04/05 06:59:37;;;;;;;3.83;1.50;;;;;;;6.74;59.27;99845.44;4996076;28;20036;-72
2024/04/05 07:02:03;;;;;;;1.75;1.45;;;;;;;6.85;60.52;99850.66;5034086;28;20052;-72
2024/04/05 07:04:32;;;;;;;1.80;1.40;;;;;;;6.99;59.84;99843.34;5026267;28;20048;-72
2024/04/05 07:06:58;;;;;;;1.67;1.50;;;;;;;7.04;59.66;99841.16;5019764;28;20583;-70
2024/04/05 07:09:28;;;;;;;1.58;1.48;;;;;;;7.26;59.09;99846.28;4984904;28;20044;-72
2024/04/05 07:11:54;;;;;;;3.63;1.23;;;;;;;7.33;56.85;99855.34;4976780;28;20156;-73
2024/04/05 07:14:20;;;;;;;2.65;1.33;;;;;;;7.26;55.83;99849.75;4977779;28;20058;-72
2024/04/05 07:16:47;;;;;;;1.65;1.23;;;;;;;7.33;57.76;99842.13;4977604;28;20073;-72
2024/04/05 07:19:17;;;;;;;1.33;1.23;;;;;;;7.53;57.69;99849.19;4977632;28;20542;-73
2024/04/05 07:21:46;;;;;;;5.75;1.77;;;;;;;7.62;56.79;99851.88;4938785;28;20555;-73
2024/04/05 07:24:15;;;;;;;2.22;1.88;;;;;;;7.68;56.02;99846.03;4939908;28;20050;-73
2024/04/05 07:26:49;;;;;;;4.05;1.73;;;;;;;7.65;54.52;99842.81;4897378;28;20051;-73
2024/04/05 07:29:18;;;;;;;3.40;1.50;;;;;;;7.78;54.80;99848.72;4940221;28;20058;-74
2024/04/05 07:31:48;;;;;;;1.90;1.70;;;;;;;7.68;53.83;99845.19;4940378;28;20057;-74
2024/04/05 07:34:14;;;;;;;3.25;1.98;;;;;;;7.77;53.53;99850.50;4955918;28;20042;-74
2024/04/05 07:36:40;;;;;;;1.73;1.60;;;;;;;7.85;53.08;99844.53;4941145;28;20050;-74
2024/04/05 07:39:08;;;;;;;1.85;1.50;;;;;;;8.03;52.67;99848.19;4925827;28;20042;-74
2024/04/05 07:41:35;;;;;;;3.25;1.75;;;;;;;8.23;52.36;99842.81;4926321;28;20038;-74
2024/04/05 07:44:02;;;;;;;2.03;1.30;;;;;;;8.42;51.48;99853.44;4943762;28;20066;-73
2024/04/05 07:46:33;;;;;;;1.95;1.52;;;;;;;8.63;51.24;99855.91;4977383;28;20046;-74
2024/04/05 07:49:00;;;;;;;3.97;1.55;;;;;;;8.57;48.95;99856.47;4958331;28;20571;-74
2024/04/05 07:51:26;;;;;;;7.80;2.20;;;;;;;8.94;48.03;99853.91;4959327;28;20054;-74
2024/04/05 07:53:57;;;;;;;5.25;1.80;;;;;;;9.98;47.25;99847.34;4929787;28;20054;-74
2024/04/05 07:56:26;;;;;;;2.30;2.08;;;;;;;10.53;43.28;99856.09;4920177;29;20055;-74
2024/04/05 07:58:52;;;;;;;2.20;1.88;;;;;;;11.24;42.11;99850.47;4935960;29;20138;-74
2024/04/05 08:01:20;;;;;;;2.00;1.80;;;;;;;12.22;40.26;99850.78;4904279;29;20146;-74
2024/04/05 08:03:49;;;;;;;2.78;2.58;;;;;;;13.52;38.08;99850.56;4895941;29;20044;-74
2024/04/05 08:06:41;;;;;;;2.13;1.70;;;;;;;15.23;34.51;99849.16;4943122;28;20518;-74
2024/04/05 08:09:09;;;;;;;1.50;1.40;;;;;;;15.53;31.99;99850.00;4965165;28;20050;-74
2024/04/05 08:11:35;;;;;;;2.75;1.63;;;;;;;15.62;31.33;99856.13;4939040;29;20055;-74
2024/04/05 08:14:02;;;;;;;2.25;1.63;;;;;;;15.56;30.62;99844.28;4938518;29;20070;-75
2024/04/05 08:16:34;;;;;;;1.48;1.23;;;;;;;14.86;30.25;99837.63;4923047;28;20090;-74
2024/04/05 08:19:01;;;;;;;1.40;1.30;;;;;;;14.71;30.83;99847.44;4923232;29;20075;-74
2024/04/05 08:21:27;;;;;;;2.50;1.65;;;;;;;16.09;30.07;99845.81;4923552;29;20134;-75
2024/04/05 08:23:53;;;;;;;3.28;2.03;;;;;;;16.95;28.39;99840.31;4926731;29;20282;-75
2024/04/05 08:26:19;;;;;;;2.78;1.50;;;;;;;17.38;27.17;99845.41;4912766;28;20087;-74
2024/04/05 08:28:47;;;;;;;3.80;1.48;;;;;;;17.27;27.17;99848.63;4964226;28;20042;-74
2024/04/05 08:31:13;;;;;;;2.88;1.60;;;;;;;16.93;26.83;99850.44;4964476;28;20056;-74
2024/04/05 08:33:40;;;;;;;4.50;4.20;;;;;;;18.24;26.62;99848.38;4964067;28;20034;-74
2024/04/05 08:36:09;;;;;;;3.53;3.22;;;;;;;20.91;23.76;99836.25;4948081;28;20494;-74
2024/04/05 08:38:38;;;;;;;3.70;3.33;;;;;;;23.33;21.22;99844.97;4932876;28;20069;-74
2024/04/05 08:41:08;;;;;;;6.20;4.93;;;;;;;25.48;18.70;99836.75;4964221;28;20052;-75
2024/04/05 08:43:39;;;;;;;4.05;3.40;;;;;;;27.70;16.69;99836.97;4998147;28;20053;-74
2024/04/05 08:46:05;;;;;;;2.28;1.80;;;;;;;27.84;15.41;99850.97;5032977;28;20092;-74
2024/04/05 08:48:34;;;;;;;2.05;1.50;;;;;;;26.27;16.40;99836.19;5033331;28;20037;-74
2024/04/05 08:51:06;;;;;;;3.47;1.85;;;;;;;23.93;17.15;99846.34;5035964;28;20052;-74
2024/04/05 08:53:32;;;;;;;4.30;3.90;;;;;;;24.80;16.90;99847.84;4986321;28;20067;-74
2024/04/05 08:56:04;;;;;;;6.57;4.45;;;;;;;26.43;15.79;99841.56;5002449;28;20060;-74
2024/04/05 08:58:37;;;;;;;4.20;3.90;;;;;;;28.19;14.51;99831.22;4987608;28;20045;-74
2024/04/05 09:01:04;;;;;;;3.83;3.10;;;;;;;29.88;13.70;99834.34;4986462;28;20060;-74
2024/04/05 09:03:30;;;;;;;3.95;1.63;;;;;;;30.18;12.66;99831.53;5001624;28;20131;-74
2024/04/05 09:05:58;;;;;;;2.42;1.40;;;;;;;28.18;13.56;99832.31;5016750;28;20056;-74
2024/04/05 09:08:26;;;;;;;3.95;3.65;;;;;;;27.71;14.06;99822.25;5018593;28;20037;-74
2024/04/05 09:10:53;;;;;;;4.22;3.20;;;;;;;28.54;13.60;99821.25;5014280;28;20413;-74
2024/04/05 09:13:20;;;;;;;4.13;3.60;;;;;;;29.92;13.00;99824.50;5020287;28;20040;-74
2024/04/05 09:15:55;;;;;;;3.80;3.50;;;;;;;31.22;12.02;99811.94;5044879;28;20503;-74
2024/04/05 09:18:32;;;;;;;4.03;3.63;;;;;;;32.09;11.29;99817.09;4975089;28;20061;-75
2024/04/05 09:21:02;;;;;;;4.45;3.25;;;;;;;33.28;11.06;99818.34;4971835;28;20511;-74
2024/04/05 09:23:49;;;;;;;7.53;3.50;;;;;;;33.81;10.49;99819.59;5012653;28;20053;-74
2024/04/05 09:26:24;;;;;;;5.00;3.20;;;;;;;33.92;9.92;99821.06;5013574;28;20380;-74
2024/04/05 09:29:13;;;;;;;4.90;2.92;;;;;;;34.06;9.76;99817.16;4992401;28;20546;-75
2024/04/05 09:31:47;;;;;;;4.18;3.13;;;;;;;33.75;9.29;99815.31;5008871;28;20074;-74
2024/04/05 09:34:16;;;;;;;3.50;3.05;;;;;;;33.96;9.79;99808.28;4992915;28;20077;-74
2024/04/05 09:36:44;;;;;;;6.15;3.00;;;;;;;34.08;9.34;99814.94;4993817;28;20038;-74
2024/04/05 09:39:16;;;;;;;3.60;3.30;;;;;;;34.21;9.54;99816.84;4961715;28;20050;-74
2024/04/05 09:41:46;;;;;;;4.55;3.20;;;;;;;34.41;9.36;99815.63;4978357;28;20485;-75
2024/04/05 09:44:12;;;;;;;7.97;3.40;;;;;;;34.15;9.14;99817.28;4993590;28;20085;-75
2024/04/05 09:46:39;;;;;;;5.45;3.70;;;;;;;33.86;9.00;99811.25;4969427;28;20552;-75
2024/04/05 09:49:14;;;;;;;3.85;3.50;;;;;;;34.08;9.14;99805.81;4932247;29;20066;-75
2024/04/05 09:51:48;;;;;;;4.60;3.72;;;;;;;34.53;8.95;99813.13;4900352;29;20143;-75
2024/04/05 09:54:19;;;;;;;5.45;4.20;;;;;;;34.83;8.64;99811.63;4932809;29;20058;-75
2024/04/05 09:57:03;;;;;;;4.47;3.95;;;;;;;35.07;8.38;99814.91;4918524;29;20058;-75
2024/04/05 09:59:31;;;;;;;5.38;4.07;;;;;;;35.56;8.35;99801.75;4917617;29;20581;-75
2024/04/05 10:02:00;;;;;;;4.55;4.15;;;;;;;35.86;8.43;99804.81;4902284;29;20095;-75
2024/04/05 10:04:29;;;;;;;7.40;4.15;;;;;;;36.30;7.97;99807.41;4922150;28;20054;-75
2024/04/05 10:07:05;;;;;;;4.22;3.88;;;;;;;36.48;8.06;99804.34;4921601;29;20091;-75
2024/04/05 10:09:34;;;;;;;4.40;4.00;;;;;;;36.24;8.01;99798.41;4921309;29;20055;-75
2024/04/05 10:12:11;;;;;;;9.13;4.57;;;;;;;36.15;7.99;99805.06;4889621;29;20486;-75
2024/04/05 10:14:38;;;;;;;6.10;3.90;;;;;;;36.29;7.85;99800.22;4919929;29;20043;-75
2024/04/05 10:17:13;;;;;;;5.40;4.03;;;;;;;36.36;7.62;99800.56;4920768;29;20047;-75
2024/04/05 10:19:40;;;;;;;5.70;4.30;;;;;;;36.33;7.85;99803.97;4943297;28;20156;-75
2024/04/05 10:22:09;;;;;;;4.57;4.20;;;;;;;36.23;7.52;99798.75;4981179;28;20116;-75
2024/04/05 10:24:38;;;;;;;5.00;4.20;;;;;;;36.28;7.55;99795.81;5031706;28;20083;-74
2024/04/05 10:27:10;;;;;;;9.35;4.10;;;;;;;35.94;7.41;99790.19;5002284;28;20055;-75
2024/04/05 10:29:38;;;;;;;6.85;4.53;;;;;;;36.03;7.78;99780.78;5019171;28;20124;-75
2024/04/05 10:32:09;;;;;;;6.18;4.30;;;;;;;35.87;7.44;99789.84;5002020;28;20052;-75
2024/04/05 10:34:40;;;;;;;8.05;4.30;;;;;;;35.78;8.11;99787.03;5035076;28;20045;-74
2024/04/05 10:37:13;;;;;;;4.82;4.43;;;;;;;35.30;7.94;99791.66;5018867;28;20055;-75
2024/04/05 10:39:43;;;;;;;4.63;4.22;;;;;;;34.89;8.14;99789.09;5001487;28;20053;-74
2024/04/05 10:42:41;;;;;;;5.45;4.90;;;;;;;35.53;8.05;99784.97;5017768;28;20052;-74
2024/04/05 10:45:12;;;;;;;5.18;4.68;;;;;;;35.97;8.14;99795.09;5032310;28;20056;-74
2024/04/05 10:47:39;;;;;;;5.20;4.50;;;;;;;36.08;7.94;99794.47;5015207;28;20041;-75
2024/04/05 10:50:10;;;;;;;5.18;4.07;;;;;;;36.46;7.87;99786.44;5000272;28;20440;-74
2024/04/05 10:52:37;;;;;;;4.90;4.40;;;;;;;36.33;7.56;99788.22;5000305;28;20141;-75
2024/04/05 10:55:10;;;;;;;4.63;4.20;;;;;;;36.03;7.75;99791.84;4952369;28;20386;-75
2024/04/05 10:57:40;;;;;;;3.92;3.50;;;;;;;35.58;7.78;99791.16;4958467;28;20178;-74
2024/04/05 11:00:35;;;;;;;4.20;3.80;;;;;;;35.35;7.55;99783.28;4952609;29;20149;-75
2024/04/05 11:03:05;;;;;;;4.97;4.15;;;;;;;34.80;7.96;99779.13;4942431;29;20059;-74
2024/04/05 11:05:33;;;;;;;8.00;4.28;;;;;;;34.42;7.96;99781.38;4929173;29;20158;-75
2024/04/05 11:08:04;;;;;;;4.53;4.13;;;;;;;33.87;8.40;99777.03;4941724;29;20062;-74
2024/04/05 11:10:33;;;;;;;5.47;4.10;;;;;;;33.22;8.82;99775.50;4910285;29;20064;-75
2024/04/05 11:13:15;;;;;;;4.85;4.05;;;;;;;33.02;8.91;99781.38;4899842;29;20062;-74
2024/04/05 11:15:44;;;;;;;5.63;3.50;;;;;;;32.71;8.75;99781.03;4883008;29;20143;-75
2024/04/05 11:18:11;;;;;;;;;;;;;;;32.53;8.83;99774.44;4913699;29;20048;-75
2024/04/05 11:20:41;;;;;;;5.22;3.42;;;;;;;32.27;8.97;99775.06;4887285;29;19966;-74
2024/04/05 11:23:19;;;;;;;3.88;3.15;;;;;;;31.87;9.15;99776.44;4897474;29;20052;-74
2024/04/05 11:25:56;;;;;;;4.97;3.67;;;;;;;31.89;9.07;99768.69;4906219;29;20048;-72
2024/04/05 11:28:24;;;;;;;3.83;3.10;;;;;;;31.82;9.23;99767.38;4919823;29;20056;-72
2024/04/05 11:30:56;;;;;;;5.57;3.40;;;;;;;31.35;9.30;99767.38;4914355;29;20048;-72
2024/04/05 11:33:22;;;;;;;10.23;3.20;;;;;;;30.18;9.38;99779.47;4918966;29;20531;-72
2024/04/05 11:35:51;;;;;;;3.97;3.25;;;;;;;28.74;10.32;99782.22;4903365;29;20125;-72
2024/04/05 11:38:23;;;;;;;3.45;2.70;;;;;;;27.06;11.26;99775.41;4903267;29;20035;-72
2024/04/05 11:40:49;;;;;;;4.25;2.80;;;;;;;25.66;12.29;99780.13;4908388;29;20055;-72
2024/04/05 11:43:15;;;;;;;5.47;3.40;;;;;;;24.41;13.15;99770.78;4938198;29;20047;-72
2024/04/05 11:45:43;;;;;;;4.55;3.30;;;;;;;23.17;13.65;99769.75;4937661;29;20099;-71